Time;durP1;ratioP1;P1;durP2;ratioP2;P2;SDS_P1;SDS_P2;PMS_P1;PMS_P2;Temp;Humidity;BMP_temperature;BMP_pressure;BME280_temperature;BME280_humidity;BME280_pressure;Samples;Min_cycle;Max_cycle;Signal;HPM_P1;HPM_P2
2022/12/05 00:00:56;;;;;;;0.57;0.57;;;;;;;8.44;63.87;101170.22;18432139;32;20462;-59
2022/12/05 00:11:00;;;;;;;0.70;0.70;;;;;;;8.24;64.35;101180.25;18431558;32;20085;-58
2022/12/05 00:21:04;;;;;;;0.65;0.65;;;;;;;8.42;64.07;101187.53;18431106;32;20142;-59
2022/12/05 00:31:11;;;;;;;0.80;0.80;;;;;;;7.75;65.59;101183.56;18430359;32;20088;-58
2022/12/05 00:41:16;;;;;;;0.47;0.47;;;;;;;8.02;64.73;101179.81;18429787;32;20116;-59
2022/12/05 00:51:23;;;;;;;0.70;0.70;;;;;;;8.56;63.09;101175.69;18429340;32;20383;-59
2022/12/05 01:01:29;;;;;;;0.62;0.62;;;;;;;8.27;64.32;101170.78;18429250;32;20116;-59
2022/12/05 01:11:34;;;;;;;0.93;0.93;;;;;;;8.07;65.40;101167.78;18428493;32;20089;-59
2022/12/05 01:21:43;;;;;;;0.60;0.60;;;;;;;8.44;64.07;101167.62;18428013;32;20436;-58
2022/12/05 01:31:47;;;;;;;2.08;1.95;;;;;;;8.32;64.75;101163.06;18427087;32;20472;-59
2022/12/05 01:41:51;;;;;;;0.60;0.60;;;;;;;8.16;65.84;101160.19;18426402;32;20111;-59
2022/12/05 01:51:58;;;;;;;1.27;1.17;;;;;;;7.25;68.45;101172.06;18432668;32;20093;-59
2022/12/05 02:02:02;;;;;;;0.50;0.50;;;;;;;7.19;68.68;101162.41;18436003;32;20141;-59
2022/12/05 02:12:07;;;;;;;0.90;0.90;;;;;;;7.86;66.18;101144.81;18436026;32;20150;-59
2022/12/05 02:22:34;;;;;;;0.55;0.55;;;;;;;8.27;64.51;101144.75;18434675;32;20143;-59
2022/12/05 02:33:08;;;;;;;0.43;0.43;;;;;;;8.00;65.34;101152.91;18434443;32;20151;-59
2022/12/05 02:43:16;;;;;;;0.60;0.60;;;;;;;8.52;63.23;101157.38;18433825;32;20097;-59
2022/12/05 02:53:22;;;;;;;0.75;0.75;;;;;;;8.25;63.92;101161.19;18434173;32;20441;-59
2022/12/05 03:03:25;;;;;;;0.70;0.70;;;;;;;8.54;63.33;101166.13;18433730;32;20093;-58
2022/12/05 03:13:33;;;;;;;0.88;0.88;;;;;;;8.00;65.61;101171.97;18433365;32;20132;-59
2022/12/05 03:23:39;;;;;;;0.50;0.50;;;;;;;8.32;64.79;101182.16;18433057;32;20455;-59
2022/12/05 03:33:45;;;;;;;0.40;0.40;;;;;;;8.38;64.39;101180.50;18433032;32;20528;-59
2022/12/05 03:43:55;;;;;;;0.93;0.80;;;;;;;8.06;65.54;101173.81;18433644;32;20134;-58
2022/12/05 03:54:02;;;;;;;0.68;0.68;;;;;;;8.35;64.93;101173.56;18432083;32;20089;-59
2022/12/05 04:04:11;;;;;;;0.60;0.60;;;;;;;8.15;65.67;101171.41;18431883;32;20107;-59
2022/12/05 04:14:18;;;;;;;0.40;0.40;;;;;;;7.87;66.44;101181.25;18430582;32;20188;-59
2022/12/05 04:34:52;;;;;;;0.93;0.93;;;;;;;7.50;68.13;101164.84;18430451;32;20133;-59
2022/12/05 04:44:57;;;;;;;1.20;1.20;;;;;;;7.83;66.95;101169.03;18429967;32;20113;-58
2022/12/05 04:55:05;;;;;;;0.77;0.77;;;;;;;8.46;64.81;101174.62;18430524;32;20073;-59
2022/12/05 05:05:11;;;;;;;0.62;0.62;;;;;;;8.53;64.53;101174.75;18428947;32;20150;-58
2022/12/05 05:15:17;;;;;;;0.60;0.60;;;;;;;7.64;67.62;101173.81;18428418;32;20417;-59
2022/12/05 05:25:21;;;;;;;1.25;1.15;;;;;;;6.42;72.50;101171.69;18431305;32;20155;-58
2022/12/05 05:35:25;;;;;;;0.70;0.70;;;;;;;7.11;70.30;101168.22;18436260;32;20088;-58
2022/12/05 05:45:28;;;;;;;0.65;0.65;;;;;;;7.03;70.97;101174.12;18435962;32;20464;-59
2022/12/05 05:55:33;;;;;;;0.80;0.80;;;;;;;7.07;71.12;101175.09;18435640;32;20081;-58
2022/12/05 06:05:36;;;;;;;0.60;0.60;;;;;;;6.63;72.87;101199.94;18435453;32;20092;-58
2022/12/05 06:15:41;;;;;;;0.60;0.60;;;;;;;6.74;72.88;101200.22;18434866;32;20437;-58
2022/12/05 06:25:47;;;;;;;0.82;0.82;;;;;;;6.71;73.42;101205.31;18434422;32;20525;-59
2022/12/05 06:36:03;;;;;;;0.70;0.70;;;;;;;7.25;70.93;101208.41;18433934;32;20089;-58
2022/12/05 06:46:08;;;;;;;0.70;0.70;;;;;;;7.29;71.46;101219.75;18434436;32;20089;-59
2022/12/05 06:56:14;;;;;;;1.55;1.05;;;;;;;7.33;71.25;101221.56;18432189;32;20115;-58
2022/12/05 07:06:17;;;;;;;0.60;0.60;;;;;;;6.81;73.41;101219.44;18432060;32;20137;-59
2022/12/05 07:16:22;;;;;;;0.50;0.50;;;;;;;6.75;73.86;101240.00;18428187;32;20365;-58
2022/12/05 07:26:26;;;;;;;0.98;0.98;;;;;;;6.75;73.68;101253.87;18429318;32;20119;-59
2022/12/05 07:36:31;;;;;;;0.98;0.98;;;;;;;6.87;73.86;101262.84;18433126;32;20429;-58
2022/12/05 07:46:34;;;;;;;0.60;0.60;;;;;;;6.58;74.87;101266.38;18429836;32;20154;-59
2022/12/05 07:56:39;;;;;;;0.70;0.70;;;;;;;7.26;72.63;101271.63;18369168;32;20089;-58
2022/12/05 08:06:49;;;;;;;;;;;;;;;7.76;70.18;101264.19;18389466;32;20114;-59
2022/12/05 08:16:53;;;;;;;1.23;1.10;;;;;;;7.60;70.59;101273.34;18427983;32;19984;-59
2022/12/05 08:26:56;;;;;;;0.70;0.70;;;;;;;7.50;71.10;101276.56;18446021;32;20358;-60
2022/12/05 08:37:08;;;;;;;0.60;0.60;;;;;;;7.73;69.93;101278.81;18478180;32;20105;-58
2022/12/05 08:47:11;;;;;;;1.30;1.25;;;;;;;7.98;69.36;101287.22;18452475;32;20101;-59
2022/12/05 08:57:16;;;;;;;0.70;0.70;;;;;;;7.63;70.77;101278.59;18425136;32;20111;-58
2022/12/05 09:07:20;;;;;;;16.58;1.02;;;;;;;7.19;72.08;101288.75;18436799;32;20134;-58
2022/12/05 09:17:25;;;;;;;0.95;0.95;;;;;;;7.63;70.78;101273.41;18436522;32;20351;-58
2022/12/05 09:27:29;;;;;;;0.62;0.62;;;;;;;7.47;71.57;101266.06;18435998;32;20475;-58
2022/12/05 09:37:33;;;;;;;1.10;0.80;;;;;;;8.16;68.54;101276.31;18405828;32;20140;-58
2022/12/05 09:47:58;;;;;;;0.75;0.75;;;;;;;7.57;70.60;101252.47;18414949;32;20097;-58
2022/12/05 09:58:04;;;;;;;0.62;0.62;;;;;;;7.35;71.54;101251.94;18435386;32;20103;-58
2022/12/05 10:08:14;;;;;;;0.85;0.85;;;;;;;7.02;72.70;101258.06;18379675;32;20340;-58
2022/12/05 10:18:29;;;;;;;0.70;0.70;;;;;;;7.45;71.34;101241.78;18419202;32;20424;-60
2022/12/05 10:28:35;;;;;;;0.57;0.57;;;;;;;7.80;70.07;101246.94;18429035;32;20119;-59
2022/12/05 10:38:40;;;;;;;0.50;0.50;;;;;;;7.67;70.79;101243.19;18435533;32;20150;-59
2022/12/05 10:48:43;;;;;;;0.60;0.60;;;;;;;7.86;70.68;101221.06;18445334;32;20101;-58
2022/12/05 10:58:56;;;;;;;0.90;0.90;;;;;;;7.91;69.87;101219.47;18443332;32;20100;-59
2022/12/05 11:09:04;;;;;;;0.60;0.60;;;;;;;8.22;69.07;101198.44;18457371;32;20096;-59
2022/12/05 11:19:26;;;;;;;0.80;0.80;;;;;;;7.77;70.25;101189.66;18451351;32;20125;-58
2022/12/05 11:29:31;;;;;;;0.70;0.70;;;;;;;8.03;69.89;101186.75;18450653;32;20093;-58
2022/12/05 11:39:36;;;;;;;0.80;0.80;;;;;;;7.70;71.30;101180.00;18413792;32;20138;-58
2022/12/05 11:49:56;;;;;;;0.52;0.52;;;;;;;8.01;70.52;101163.31;18442501;32;20347;-58
2022/12/05 12:00:10;;;;;;;0.60;0.60;;;;;;;7.90;70.94;101159.63;18456855;32;20711;-59
2022/12/05 12:10:20;;;;;;;0.50;0.50;;;;;;;7.75;71.78;101141.97;18452665;32;20107;-59
2022/12/05 12:20:36;;;;;;;0.82;0.82;;;;;;;7.87;71.69;101136.16;18428093;32;20105;-58
2022/12/05 12:30:49;;;;;;;0.60;0.60;;;;;;;8.12;70.09;101139.28;18438180;32;20116;-58
2022/12/05 12:40:57;;;;;;;0.98;0.95;;;;;;;7.73;71.70;101130.69;18474535;32;20092;-59
2022/12/05 12:51:01;;;;;;;1.23;1.20;;;;;;;7.82;71.67;101129.97;18429644;32;20105;-58
2022/12/05 13:01:12;;;;;;;0.70;0.70;;;;;;;7.94;70.97;101117.25;18424435;32;20546;-58
2022/12/05 13:11:16;;;;;;;0.60;0.60;;;;;;;8.49;68.92;101110.47;18460364;32;20089;-59
2022/12/05 13:21:20;;;;;;;0.62;0.62;;;;;;;8.18;69.64;101121.19;18477052;32;20105;-58
2022/12/05 13:31:36;;;;;;;0.50;0.50;;;;;;;7.98;71.21;101107.81;18455613;32;20398;-59
2022/12/05 13:52:08;;;;;;;0.50;0.50;;;;;;;8.64;68.40;101091.69;18499216;32;20154;-59
2022/12/05 14:02:45;;;;;;;0.60;0.60;;;;;;;9.02;67.59;101097.50;18500174;32;20153;-59
2022/12/05 14:12:53;;;;;;;0.68;0.68;;;;;;;8.90;67.97;101109.47;18500705;32;20423;-59
2022/12/05 14:23:15;;;;;;;1.87;0.95;;;;;;;9.00;67.30;101107.00;18499775;32;20093;-59
2022/12/05 14:33:22;;;;;;;1.05;0.98;;;;;;;9.41;66.17;101116.28;18498981;32;20105;-59
2022/12/05 14:43:29;;;;;;;1.52;0.93;;;;;;;8.70;68.94;101099.59;18499066;32;20150;-59
2022/12/05 14:53:36;;;;;;;0.90;0.90;;;;;;;9.49;66.24;101100.78;18498266;32;20100;-59
2022/12/05 15:03:42;;;;;;;2.58;1.90;;;;;;;9.99;64.58;101096.19;18498218;32;20101;-59
2022/12/05 15:13:47;;;;;;;0.60;0.60;;;;;;;9.95;64.72;101083.94;18446597;32;20435;-59
2022/12/05 15:23:56;;;;;;;1.15;0.98;;;;;;;10.14;64.05;101082.41;18416683;32;20111;-59
2022/12/05 15:34:06;;;;;;;0.50;0.50;;;;;;;9.85;64.97;101072.53;18432037;32;20171;-59
2022/12/05 15:44:11;;;;;;;1.05;1.05;;;;;;;9.94;64.75;101067.44;18432875;32;20092;-59
2022/12/05 15:54:17;;;;;;;0.70;0.70;;;;;;;10.14;64.05;101062.41;18432292;32;20092;-59
2022/12/05 16:04:26;;;;;;;0.68;0.68;;;;;;;10.18;64.12;101058.09;18432272;32;20092;-59
2022/12/05 16:14:35;;;;;;;7.63;3.80;;;;;;;9.94;65.12;101048.28;18431191;32;20160;-58
2022/12/05 16:25:01;;;;;;;2.72;2.50;;;;;;;10.12;64.36;101069.34;18426880;32;163658;-59
2022/12/05 16:35:29;;;;;;;1.52;1.42;;;;;;;10.12;64.62;101042.41;18430515;32;20434;-59
2022/12/05 16:45:40;;;;;;;2.33;1.27;;;;;;;10.23;64.27;101040.78;18430229;32;20093;-59
2022/12/05 16:55:45;;;;;;;1.45;1.35;;;;;;;10.18;64.54;101046.81;18429028;32;20618;-59
2022/12/05 17:05:49;;;;;;;2.05;1.90;;;;;;;10.21;64.66;101052.03;18427312;32;20111;-59
2022/12/05 17:15:54;;;;;;;1.85;1.75;;;;;;;10.31;64.45;101059.09;18428069;32;20105;-58
2022/12/05 17:25:58;;;;;;;1.87;1.23;;;;;;;10.24;64.96;101039.91;18427195;32;20116;-58
2022/12/05 17:36:03;;;;;;;0.52;0.52;;;;;;;10.22;65.20;101025.09;18455712;32;20183;-58
2022/12/05 17:46:07;;;;;;;1.10;1.00;;;;;;;10.28;64.95;101019.94;18483701;32;20492;-58
2022/12/05 17:56:12;;;;;;;0.85;0.85;;;;;;;10.30;64.97;101004.31;18475382;32;20088;-58
2022/12/05 18:06:16;;;;;;;1.58;1.48;;;;;;;10.30;65.14;100999.94;18441433;32;20120;-58
2022/12/05 18:16:21;;;;;;;2.37;2.20;;;;;;;10.34;65.17;101012.16;18441408;32;20105;-58
2022/12/05 18:26:24;;;;;;;2.47;2.12;;;;;;;10.33;65.61;101007.78;18459121;32;20504;-58
2022/12/05 18:36:29;;;;;;;1.48;1.37;;;;;;;10.35;65.91;101003.47;18499540;32;20104;-58
2022/12/05 18:46:32;;;;;;;0.82;0.82;;;;;;;10.46;65.62;100994.91;18496744;32;20136;-58
2022/12/05 18:56:39;;;;;;;1.87;1.12;;;;;;;10.36;66.21;100991.28;18466078;32;20362;-58
2022/12/05 19:06:47;;;;;;;1.77;1.12;;;;;;;10.40;66.31;100993.94;18451299;32;20125;-58
2022/12/05 19:16:53;;;;;;;1.58;0.93;;;;;;;10.51;66.18;100978.41;18477440;32;20129;-58
2022/12/05 19:27:02;;;;;;;;;;;;;;;10.45;66.67;100977.47;18442946;32;20139;-58
2022/12/05 19:37:07;;;;;;;1.85;1.75;;;;;;;10.06;69.12;100980.63;18434012;32;19977;-58
2022/12/05 19:47:10;;;;;;;1.58;0.80;;;;;;;9.91;69.84;100967.41;18434301;32;20111;-58
2022/12/05 19:57:16;;;;;;;1.55;1.20;;;;;;;9.20;73.28;100978.81;18461522;32;20116;-58
2022/12/05 20:07:24;;;;;;;2.92;1.70;;;;;;;9.16;73.23;100969.19;18462605;32;20448;-58
2022/12/05 20:17:32;;;;;;;0.70;0.70;;;;;;;8.77;75.87;100950.44;18462418;32;20089;-59
2022/12/05 20:27:35;;;;;;;2.35;2.20;;;;;;;8.68;76.09;100959.00;18431608;32;20156;-59
2022/12/05 20:37:46;;;;;;;4.32;3.47;;;;;;;8.90;75.69;100961.03;18428786;32;20143;-58
2022/12/05 20:47:50;;;;;;;1.15;1.08;;;;;;;9.29;74.57;100945.06;18429871;32;20366;-58
2022/12/05 20:57:55;;;;;;;1.85;1.75;;;;;;;8.82;75.70;100938.37;18433333;32;20123;-58
2022/12/05 21:07:59;;;;;;;0.50;0.50;;;;;;;9.08;74.61;100936.97;18437105;32;20097;-58
2022/12/05 21:18:04;;;;;;;0.95;0.95;;;;;;;9.11;75.11;100939.63;18435032;32;20106;-58
2022/12/05 21:28:07;;;;;;;2.00;1.85;;;;;;;8.70;76.54;100917.38;18437324;32;20097;-58
2022/12/05 21:38:13;;;;;;;1.37;1.27;;;;;;;8.92;75.48;100913.34;18436427;32;20112;-58
2022/12/05 21:48:19;;;;;;;2.85;1.50;;;;;;;8.84;75.95;100894.16;18441295;32;20093;-59
2022/12/05 21:58:24;;;;;;;2.80;2.45;;;;;;;8.80;75.51;100897.56;18500229;32;20115;-58
2022/12/05 22:08:29;;;;;;;1.62;1.15;;;;;;;10.08;70.51;100889.31;18476416;32;20108;-58
2022/12/05 22:18:37;;;;;;;1.92;1.83;;;;;;;9.32;73.39;100871.25;18462119;32;20084;-58
2022/12/05 22:28:42;;;;;;;1.27;0.65;;;;;;;10.18;69.18;100874.59;18496390;32;20115;-59
2022/12/05 22:38:48;;;;;;;3.67;0.90;;;;;;;9.77;70.58;100860.37;18470457;32;20100;-59
2022/12/05 22:48:52;;;;;;;1.08;1.02;;;;;;;10.20;68.93;100852.00;18484591;32;20119;-58
2022/12/05 22:58:58;;;;;;;1.37;1.27;;;;;;;10.32;68.02;100846.00;18498270;32;20114;-58
2022/12/05 23:09:03;;;;;;;2.40;2.15;;;;;;;10.31;67.86;100826.84;18498050;32;20092;-58
2022/12/05 23:19:12;;;;;;;1.52;1.37;;;;;;;10.37;67.45;100821.66;18497544;32;20423;-58
2022/12/05 23:29:15;;;;;;;1.02;0.98;;;;;;;10.41;67.24;100807.78;18478749;32;20143;-58
2022/12/05 23:39:20;;;;;;;1.37;1.27;;;;;;;10.34;67.24;100810.34;18432851;32;20093;-58
2022/12/05 23:49:24;;;;;;;1.33;0.77;;;;;;;10.30;67.20;100801.62;18432676;32;20380;-58
2022/12/05 23:59:28;;;;;;;1.58;1.48;;;;;;;10.29;67.40;100779.00;18432240;32;20445;-58
